This is the latest recevied weather packets stored in our database for station/object DC2MP. If no packets are shown the sender has not sent any weather packets the latest 10 day(s).
| Time | Temp. | Humidity | Pressure | Rain* | Wind** | Luminosity | Snow |
|---|---|---|---|---|---|---|---|
| 1778248143 | 18.33° C | 51% | 1015.2 hPa | 0 mm | - | - | - |
| 1778244543 | 17.22° C | 53% | 1015.3 hPa | 0 mm | - | - | - |
| 1778240943 | 18.33° C | 51% | 1015.3 hPa | 0 mm | - | - | - |
| 1778237343 | 17.78° C | 53% | 1015.5 hPa | 0 mm | - | - | - |
| 1778233744 | 15° C | 61% | 1015.7 hPa | 0 mm | - | - | - |
| 1778230143 | 13.89° C | 63% | 1015.8 hPa | 0 mm | - | - | - |
| 1778226543 | 12.78° C | 65% | 1015.9 hPa | 0 mm | - | - | - |
| 1778219343 | 3.89° C | 93% | 1016 hPa | 0 mm | - | - | - |
| 1778215743 | 3.33° C | 94% | 1015.7 hPa | 0 mm | - | - | - |
| 1778212143 | 3.89° C | 95% | 1015.5 hPa | 0 mm | - | - | - |
| 1778208544 | 4.44° C | 95% | 1015.6 hPa | 0 mm | - | - | - |
| 1778204943 | 3.89° C | 94% | 1015.6 hPa | 0 mm | - | - | - |
| 1778201343 | 5.56° C | 94% | 1015.7 hPa | 0 mm | - | - | - |
| 1778197743 | 6.11° C | 92% | 1016 hPa | 0 mm | - | - | - |
| 1778194143 | 7.22° C | 89% | 1016.2 hPa | 0 mm | - | - | - |
| 1778190543 | 8.33° C | 88% | 1016.3 hPa | 0 mm | - | - | - |
| 1778186943 | 8.33° C | 87% | 1016.2 hPa | 0 mm | - | - | - |
| 1778183343 | 10° C | 85% | 1016 hPa | 0 mm | - | - | - |
| 1778179743 | 11.67° C | 76% | 1015.2 hPa | 0 mm | - | - | - |
| 1778176143 | 13.33° C | 63% | 1014.8 hPa | 0 mm | - | - | - |
| 1778168943 | 13.33° C | 59% | 1014.7 hPa | 0 mm | - | - | - |
| 1778165343 | 13.89° C | 56% | 1014.4 hPa | 0 mm | - | - | - |
| 1778158143 | 14.44° C | 58% | 1014.2 hPa | 0 mm | - | - | - |
| 1778154543 | 15° C | 52% | 1013.9 hPa | 0 mm | - | - | - |
| 1778150943 | 13.89° C | 57% | 1014.3 hPa | 0 mm | - | - | - |
* Rain latest hour (hover to see other rain measurements)
** Current wind speed in m/s (hover to see current wind gust speed)